createdAt,value
2023-08-06T00:01:22.298Z,15.11
2023-08-06T00:03:24.203Z,15.06
2023-08-06T00:05:25.877Z,15.03
2023-08-06T00:07:28.094Z,15.05
2023-08-06T00:09:29.653Z,15.04
2023-08-06T00:11:35.770Z,15.02
2023-08-06T00:13:37.369Z,15.06
2023-08-06T00:15:38.984Z,15.04
2023-08-06T00:17:40.647Z,15.10
2023-08-06T00:19:42.505Z,15.09
2023-08-06T00:21:44.034Z,15.12
2023-08-06T00:23:46.269Z,15.14
2023-08-06T00:25:47.870Z,15.13
2023-08-06T00:27:49.517Z,15.09
2023-08-06T00:29:51.230Z,15.10
2023-08-06T00:31:52.961Z,15.18
2023-08-06T00:33:54.771Z,15.12
2023-08-06T00:35:56.473Z,15.12
2023-08-06T00:37:58.075Z,15.09
2023-08-06T00:39:59.673Z,15.07
2023-08-06T00:42:01.815Z,15.12
2023-08-06T00:44:03.926Z,15.10
2023-08-06T00:46:05.679Z,15.11
2023-08-06T00:48:08.298Z,15.10
2023-08-06T00:50:10.113Z,15.05
2023-08-06T00:52:11.855Z,15.05
2023-08-06T00:54:14.282Z,15.07
2023-08-06T00:56:15.835Z,15.05
2023-08-06T00:58:17.626Z,15.04
2023-08-06T01:00:21.657Z,15.10
2023-08-06T01:02:23.333Z,15.07
2023-08-06T01:04:25.595Z,15.13
2023-08-06T01:06:44.580Z,14.94
2023-08-06T01:08:50.930Z,15.11
2023-08-06T01:11:04.147Z,15.14
2023-08-06T01:13:29.385Z,15.11
2023-08-06T01:15:43.535Z,15.09
2023-08-06T01:17:46.492Z,15.18
2023-08-06T01:19:48.141Z,15.15
2023-08-06T01:21:49.927Z,15.18
2023-08-06T01:23:53.086Z,15.21
2023-08-06T01:26:03.592Z,15.17
2023-08-06T01:28:33.966Z,15.17
2023-08-06T01:30:39.956Z,15.17
2023-08-06T01:32:46.460Z,15.12
2023-08-06T01:34:49.874Z,15.06
2023-08-06T01:36:53.600Z,15.11
2023-08-06T01:38:55.498Z,15.04
2023-08-06T01:40:57.027Z,15.07
2023-08-06T01:42:58.818Z,15.06
2023-08-06T01:45:00.430Z,15.06
2023-08-06T01:47:02.433Z,14.97
2023-08-06T01:49:04.001Z,15.01
2023-08-06T01:51:06.902Z,14.99
2023-08-06T01:53:08.590Z,14.98
2023-08-06T01:55:10.100Z,15.09
2023-08-06T01:57:12.764Z,15.01
2023-08-06T01:59:14.813Z,14.93
2023-08-06T02:01:16.693Z,14.95
2023-08-06T02:03:18.302Z,15.03
2023-08-06T02:05:19.896Z,14.97
2023-08-06T02:07:21.429Z,14.86
2023-08-06T02:09:23.133Z,14.88
2023-08-06T02:11:24.666Z,14.86
2023-08-06T02:13:26.476Z,14.84
2023-08-06T02:15:28.043Z,14.75
2023-08-06T02:17:29.609Z,14.63
2023-08-06T02:19:31.173Z,14.63
2023-08-06T02:21:32.740Z,14.63
2023-08-06T02:23:34.342Z,14.73
2023-08-06T02:25:36.608Z,14.77
2023-08-06T02:27:38.687Z,14.73
2023-08-06T02:29:42.461Z,14.71
2023-08-06T02:31:44.122Z,14.70
2023-08-06T02:33:45.710Z,14.71
2023-08-06T02:35:47.297Z,14.80
2023-08-06T02:37:48.870Z,14.80
2023-08-06T02:39:50.409Z,14.75
2023-08-06T02:41:52.374Z,14.84
2023-08-06T02:43:54.534Z,14.73
2023-08-06T02:46:00.937Z,14.69
2023-08-06T02:48:03.573Z,14.70
2023-08-06T02:50:05.933Z,14.65
2023-08-06T02:52:08.007Z,14.52
2023-08-06T02:54:09.732Z,14.50
2023-08-06T02:56:11.934Z,14.39
2023-08-06T02:58:25.537Z,14.28
2023-08-06T03:00:38.189Z,14.38
2023-08-06T03:02:41.955Z,14.49
2023-08-06T03:04:56.125Z,14.54
2023-08-06T03:07:01.467Z,14.55
2023-08-06T03:09:11.280Z,14.59
2023-08-06T03:11:12.950Z,14.54
2023-08-06T03:13:16.319Z,14.57
2023-08-06T03:15:18.059Z,14.62
2023-08-06T03:17:21.524Z,14.71
2023-08-06T03:19:23.493Z,14.69
2023-08-06T03:21:25.919Z,14.75
2023-08-06T03:23:28.116Z,14.82
2023-08-06T03:25:29.746Z,14.77
2023-08-06T03:27:31.358Z,14.76
2023-08-06T03:29:33.023Z,14.81
2023-08-06T03:31:36.745Z,14.79
2023-08-06T03:33:39.219Z,14.81
2023-08-06T03:35:45.356Z,14.74
2023-08-06T03:37:47.177Z,14.69
2023-08-06T03:39:48.987Z,14.72
2023-08-06T03:41:51.258Z,14.76
2023-08-06T03:43:53.264Z,14.76
2023-08-06T03:46:00.210Z,14.79
2023-08-06T03:48:01.897Z,14.78
2023-08-06T03:50:03.857Z,14.66
2023-08-06T03:52:06.242Z,14.65
2023-08-06T03:54:07.861Z,14.72
2023-08-06T03:56:09.847Z,14.71
2023-08-06T03:58:11.410Z,14.73
2023-08-06T04:00:13.661Z,14.72
2023-08-06T04:02:23.303Z,14.65
2023-08-06T04:04:25.308Z,14.64
2023-08-06T04:06:27.077Z,14.71
2023-08-06T04:08:28.621Z,14.62
2023-08-06T04:10:30.197Z,14.53
2023-08-06T04:12:32.490Z,14.50
2023-08-06T04:14:34.042Z,14.45
2023-08-06T04:16:35.653Z,14.41
2023-08-06T04:18:37.366Z,14.38
2023-08-06T04:20:46.236Z,14.42
2023-08-06T04:22:47.833Z,14.44
2023-08-06T04:24:49.823Z,14.40
2023-08-06T04:26:51.418Z,14.37
2023-08-06T04:28:52.975Z,14.41
2023-08-06T04:30:55.114Z,14.37
2023-08-06T04:32:58.899Z,14.41
2023-08-06T04:35:01.379Z,14.32
2023-08-06T04:37:04.278Z,14.37
2023-08-06T04:39:05.855Z,14.39
2023-08-06T04:41:07.468Z,14.45
2023-08-06T04:43:10.386Z,14.42
2023-08-06T04:45:12.098Z,14.45
2023-08-06T04:47:14.308Z,14.51
2023-08-06T04:49:17.391Z,14.56
2023-08-06T04:51:18.960Z,14.53
2023-08-06T04:53:20.771Z,14.48
2023-08-06T04:55:22.738Z,14.50
2023-08-06T04:57:24.716Z,14.54
2023-08-06T04:59:26.470Z,14.54
2023-08-06T05:01:28.101Z,14.55
2023-08-06T05:03:30.045Z,14.60
2023-08-06T05:05:31.578Z,14.65
2023-08-06T05:07:33.162Z,14.64
2023-08-06T05:09:34.769Z,14.69
2023-08-06T05:11:37.245Z,14.73
2023-08-06T05:13:38.967Z,14.73
2023-08-06T05:15:43.940Z,14.78
2023-08-06T05:17:45.726Z,14.89
2023-08-06T05:19:47.341Z,15.07
2023-08-06T05:21:48.894Z,15.26
2023-08-06T05:23:50.477Z,15.40
2023-08-06T05:25:52.119Z,15.56
2023-08-06T05:27:54.302Z,15.65
2023-08-06T05:29:57.275Z,15.65
2023-08-06T05:31:59.154Z,15.60
2023-08-06T05:34:00.726Z,15.60
2023-08-06T05:36:02.283Z,15.53
2023-08-06T05:38:03.817Z,15.36
2023-08-06T05:40:05.834Z,15.35
2023-08-06T05:42:08.008Z,15.25
2023-08-06T05:44:09.511Z,15.25
2023-08-06T05:46:11.173Z,15.29
2023-08-06T05:48:13.409Z,15.17
2023-08-06T05:50:14.958Z,15.04
2023-08-06T05:52:17.176Z,14.91
2023-08-06T05:54:18.688Z,14.76
2023-08-06T05:56:20.251Z,14.85
2023-08-06T05:58:21.882Z,14.74
2023-08-06T06:00:24.060Z,14.82
2023-08-06T06:02:25.626Z,14.78
2023-08-06T06:04:27.278Z,14.82
2023-08-06T06:06:28.806Z,14.96
2023-08-06T06:08:31.917Z,15.01
2023-08-06T06:10:33.749Z,14.99
2023-08-06T06:12:35.332Z,14.93
2023-08-06T06:14:36.929Z,14.95
2023-08-06T06:16:38.498Z,14.78
2023-08-06T06:18:40.694Z,14.85
2023-08-06T06:20:42.206Z,14.69
2023-08-06T06:22:44.019Z,14.68
2023-08-06T06:24:45.657Z,14.53
2023-08-06T06:26:47.199Z,14.50
2023-08-06T06:28:48.798Z,14.24
2023-08-06T06:30:51.272Z,14.23
2023-08-06T06:32:53.281Z,14.15
2023-08-06T06:34:55.439Z,14.23
2023-08-06T06:36:57.371Z,14.32
2023-08-06T06:38:58.889Z,14.37
2023-08-06T06:41:00.899Z,14.36
2023-08-06T06:43:02.478Z,14.33
2023-08-06T06:45:04.264Z,14.35
2023-08-06T06:47:05.999Z,14.40
2023-08-06T06:49:07.675Z,14.33
2023-08-06T06:51:09.748Z,14.36
2023-08-06T06:53:11.396Z,14.37
2023-08-06T06:55:12.917Z,14.43
2023-08-06T06:57:14.497Z,14.43
2023-08-06T06:59:16.101Z,14.47
2023-08-06T07:01:17.757Z,14.57
2023-08-06T07:03:21.308Z,14.67
2023-08-06T07:05:23.225Z,14.44
2023-08-06T07:07:24.908Z,14.49
2023-08-06T07:09:26.806Z,14.48
2023-08-06T07:11:28.402Z,14.65
2023-08-06T07:13:30.844Z,14.65
2023-08-06T07:15:32.755Z,14.71
2023-08-06T07:17:34.331Z,14.81
2023-08-06T07:19:35.910Z,14.82
2023-08-06T07:21:37.523Z,14.83
2023-08-06T07:23:39.171Z,14.76
2023-08-06T07:25:40.694Z,14.71
2023-08-06T07:27:42.470Z,14.68
2023-08-06T07:29:44.018Z,14.59
2023-08-06T07:31:45.516Z,14.56
2023-08-06T07:33:47.779Z,14.45
2023-08-06T07:35:49.385Z,14.44
2023-08-06T07:37:50.935Z,14.35
2023-08-06T07:39:52.435Z,14.42
2023-08-06T07:41:54.551Z,14.33
2023-08-06T07:43:56.319Z,14.31
2023-08-06T07:46:01.878Z,14.39
2023-08-06T07:48:04.257Z,14.47
2023-08-06T07:50:06.139Z,14.42
2023-08-06T07:52:08.165Z,14.40
2023-08-06T07:54:10.104Z,14.43
2023-08-06T07:56:11.790Z,14.43
2023-08-06T07:58:13.350Z,14.39
2023-08-06T08:00:15.179Z,14.43
2023-08-06T08:02:16.944Z,14.53
2023-08-06T08:04:20.046Z,14.45
2023-08-06T08:06:24.096Z,14.52
2023-08-06T08:08:25.971Z,14.59
2023-08-06T08:10:27.512Z,14.63
2023-08-06T08:12:29.263Z,14.64
2023-08-06T08:14:36.379Z,14.61
2023-08-06T08:16:38.406Z,14.68
2023-08-06T08:18:40.087Z,14.55
2023-08-06T08:20:41.635Z,14.33
2023-08-06T08:22:43.211Z,14.32
2023-08-06T08:24:45.147Z,14.22
2023-08-06T08:26:46.663Z,14.28
2023-08-06T08:28:48.211Z,14.24
2023-08-06T08:30:49.764Z,14.24
2023-08-06T08:32:51.886Z,14.12
2023-08-06T08:34:53.712Z,14.14
2023-08-06T08:36:55.258Z,14.17
2023-08-06T08:38:57.806Z,14.11
2023-08-06T08:40:59.348Z,14.26
2023-08-06T08:43:01.070Z,14.33
2023-08-06T08:45:05.102Z,14.35
2023-08-06T08:47:09.559Z,14.40
2023-08-06T08:49:12.403Z,14.52
2023-08-06T08:51:14.270Z,14.58
2023-08-06T08:53:17.325Z,14.58
2023-08-06T08:55:19.145Z,14.61
2023-08-06T08:57:21.720Z,14.67
2023-08-06T08:59:24.514Z,14.64
2023-08-06T09:01:27.361Z,14.68
2023-08-06T09:03:29.483Z,14.51
2023-08-06T09:05:34.592Z,14.58
2023-08-06T09:07:48.015Z,14.70
2023-08-06T09:09:50.712Z,14.64
2023-08-06T09:11:53.765Z,14.65
2023-08-06T09:13:56.532Z,14.72
2023-08-06T09:15:58.126Z,14.76
2023-08-06T09:18:00.242Z,14.84
2023-08-06T09:20:10.986Z,14.97
2023-08-06T09:22:14.804Z,14.98
2023-08-06T09:24:16.689Z,15.02
2023-08-06T09:26:18.188Z,15.17
2023-08-06T09:28:19.709Z,15.25
2023-08-06T09:30:35.156Z,15.14
2023-08-06T09:32:49.030Z,15.23
2023-08-06T09:34:57.009Z,15.07
2023-08-06T09:36:58.578Z,14.98
2023-08-06T09:39:00.148Z,14.95
2023-08-06T09:41:01.734Z,14.94
2023-08-06T09:43:06.432Z,15.04
2023-08-06T09:45:08.424Z,15.18
2023-08-06T09:47:09.962Z,15.44
2023-08-06T09:49:11.541Z,15.66
2023-08-06T09:51:14.630Z,15.96
2023-08-06T09:53:16.646Z,15.92
2023-08-06T09:55:20.693Z,15.93
2023-08-06T09:57:26.104Z,16.23
2023-08-06T09:59:27.998Z,16.52
2023-08-06T10:01:29.737Z,16.77
2023-08-06T10:03:32.145Z,16.76
2023-08-06T10:05:34.551Z,16.98
2023-08-06T10:07:37.043Z,17.50
2023-08-06T10:09:39.264Z,17.67
2023-08-06T10:11:41.138Z,17.63
2023-08-06T10:13:42.823Z,17.77
2023-08-06T10:15:44.801Z,18.02
2023-08-06T10:17:51.243Z,18.23
2023-08-06T10:19:56.264Z,18.03
2023-08-06T10:22:18.295Z,18.01
2023-08-06T10:24:20.163Z,17.99
2023-08-06T10:26:26.051Z,17.85
2023-08-06T10:28:39.073Z,18.37
2023-08-06T10:30:46.438Z,18.37
2023-08-06T10:32:50.373Z,18.45
2023-08-06T10:34:59.240Z,17.97
2023-08-06T10:37:02.303Z,18.03
2023-08-06T10:39:05.269Z,18.03
2023-08-06T10:41:06.809Z,18.02
2023-08-06T10:43:10.413Z,18.43
2023-08-06T10:45:16.612Z,18.73
2023-08-06T10:47:27.866Z,18.89
2023-08-06T10:49:29.737Z,18.70
2023-08-06T10:51:31.745Z,19.06
2023-08-06T10:53:34.592Z,19.52
2023-08-06T10:55:38.181Z,19.86
2023-08-06T10:57:39.952Z,19.92
2023-08-06T10:59:43.971Z,19.82
2023-08-06T11:01:47.163Z,19.46
2023-08-06T11:03:51.882Z,19.75
2023-08-06T11:05:53.467Z,19.34
2023-08-06T11:07:54.998Z,19.31
2023-08-06T11:10:03.470Z,18.88
2023-08-06T11:12:11.130Z,18.74
2023-08-06T11:14:16.469Z,18.30
2023-08-06T11:16:24.410Z,18.10
2023-08-06T11:18:26.279Z,17.91
2023-08-06T11:20:27.798Z,17.77
2023-08-06T11:22:29.446Z,17.46
2023-08-06T11:24:31.793Z,17.18
2023-08-06T11:26:33.532Z,16.68
2023-08-06T11:28:35.512Z,16.62
2023-08-06T11:30:39.226Z,16.58
2023-08-06T11:32:50.731Z,16.47
2023-08-06T11:34:56.385Z,16.35
2023-08-06T11:36:58.330Z,16.46
2023-08-06T11:39:01.392Z,16.38
2023-08-06T11:41:03.496Z,16.44
2023-08-06T11:43:07.015Z,16.41
2023-08-06T11:45:10.584Z,16.44
2023-08-06T11:47:19.221Z,16.36
2023-08-06T11:49:22.533Z,16.37
2023-08-06T11:51:27.886Z,16.43
2023-08-06T11:53:30.243Z,16.39
2023-08-06T11:55:32.352Z,16.42
2023-08-06T11:57:36.336Z,16.42
2023-08-06T11:59:40.177Z,16.54
2023-08-06T12:01:42.146Z,16.57
2023-08-06T12:03:44.176Z,16.60
2023-08-06T12:05:47.791Z,16.75
2023-08-06T12:07:51.390Z,16.91
2023-08-06T12:09:53.004Z,17.13
2023-08-06T12:11:54.686Z,17.34
2023-08-06T12:13:57.853Z,17.45
2023-08-06T12:15:59.395Z,17.29
2023-08-06T12:18:01.187Z,17.37
2023-08-06T12:20:07.588Z,17.57
2023-08-06T12:22:09.758Z,17.44
2023-08-06T12:24:11.583Z,17.34
2023-08-06T12:26:13.242Z,17.13
2023-08-06T12:28:14.752Z,16.86
2023-08-06T12:30:16.760Z,16.60
2023-08-06T12:32:18.315Z,16.60
2023-08-06T12:34:21.359Z,16.81
2023-08-06T12:36:25.910Z,17.26
2023-08-06T12:38:28.263Z,17.89
2023-08-06T12:40:37.175Z,18.30
2023-08-06T12:42:40.319Z,18.49
2023-08-06T12:44:42.136Z,18.36
2023-08-06T12:46:43.770Z,18.23
2023-08-06T12:48:45.490Z,17.85
2023-08-06T12:50:47.327Z,17.13
2023-08-06T12:52:49.587Z,16.86
2023-08-06T12:54:51.164Z,16.22
2023-08-06T12:56:53.220Z,15.93
2023-08-06T12:58:54.843Z,15.71
2023-08-06T13:00:57.195Z,15.51
2023-08-06T13:02:58.890Z,15.31
2023-08-06T13:05:00.871Z,15.12
2023-08-06T13:07:02.488Z,14.91
2023-08-06T13:09:04.988Z,14.97
2023-08-06T13:11:06.848Z,14.76
2023-08-06T13:13:08.431Z,14.61
2023-08-06T13:15:10.719Z,14.47
2023-08-06T13:17:12.392Z,14.49
2023-08-06T13:19:14.474Z,14.56
2023-08-06T13:21:16.195Z,14.55
2023-08-06T13:23:17.798Z,14.39
2023-08-06T13:25:20.259Z,14.27
2023-08-06T13:27:22.058Z,14.16
2023-08-06T13:29:23.620Z,14.07
2023-08-06T13:31:25.849Z,14.00
2023-08-06T13:33:27.831Z,14.05
2023-08-06T13:35:29.340Z,14.05
2023-08-06T13:37:30.941Z,14.01
2023-08-06T13:39:32.642Z,13.88
2023-08-06T13:41:35.311Z,13.79
2023-08-06T13:43:36.847Z,13.69
2023-08-06T13:45:39.168Z,13.61
2023-08-06T13:47:40.746Z,13.52
2023-08-06T13:49:42.280Z,13.49
2023-08-06T13:51:43.995Z,13.45
2023-08-06T13:53:46.170Z,13.45
2023-08-06T13:55:47.755Z,13.51
2023-08-06T13:57:49.267Z,13.49
2023-08-06T13:59:51.623Z,13.50
2023-08-06T14:01:56.331Z,13.54
2023-08-06T14:03:58.443Z,13.51
2023-08-06T14:06:00.098Z,13.45
2023-08-06T14:08:01.801Z,13.47
2023-08-06T14:10:03.644Z,13.44
2023-08-06T14:12:06.556Z,13.43
2023-08-06T14:14:09.034Z,13.39
2023-08-06T14:16:10.775Z,13.44
2023-08-06T14:18:12.456Z,13.46
2023-08-06T14:20:14.328Z,13.51
2023-08-06T14:22:15.875Z,13.41
2023-08-06T14:24:17.430Z,13.53
2023-08-06T14:26:19.259Z,13.51
2023-08-06T14:28:20.775Z,13.37
2023-08-06T14:30:22.436Z,13.34
2023-08-06T14:32:24.126Z,13.32
2023-08-06T14:34:26.205Z,13.30
2023-08-06T14:36:27.845Z,13.33
2023-08-06T14:38:29.327Z,13.37
2023-08-06T14:40:35.645Z,13.30
2023-08-06T14:42:37.481Z,13.27
2023-08-06T14:44:39.482Z,13.24
2023-08-06T14:46:42.292Z,13.25
2023-08-06T14:48:43.917Z,13.30
2023-08-06T14:50:45.541Z,13.43
2023-08-06T14:52:47.118Z,13.41
2023-08-06T14:54:48.740Z,13.48
2023-08-06T14:56:50.352Z,13.45
2023-08-06T14:58:52.072Z,13.42
2023-08-06T15:00:55.062Z,13.37
2023-08-06T15:02:56.687Z,13.33
2023-08-06T15:04:58.379Z,13.40
2023-08-06T15:06:59.973Z,13.42
2023-08-06T15:09:02.099Z,13.27
2023-08-06T15:11:04.246Z,13.31
2023-08-06T15:13:05.996Z,13.30
2023-08-06T15:15:09.348Z,13.25
2023-08-06T15:17:11.129Z,13.28
2023-08-06T15:19:12.985Z,13.24
2023-08-06T15:21:14.540Z,13.20
2023-08-06T15:23:16.057Z,13.21
2023-08-06T15:25:17.626Z,13.21
2023-08-06T15:27:19.466Z,13.26
2023-08-06T15:29:22.043Z,13.37
2023-08-06T15:31:23.702Z,13.32
2023-08-06T15:33:25.672Z,13.25
2023-08-06T15:35:27.844Z,13.28
2023-08-06T15:37:30.998Z,13.25
2023-08-06T15:39:32.987Z,13.24
2023-08-06T15:41:34.590Z,13.29
2023-08-06T15:43:36.326Z,13.34
2023-08-06T15:45:38.197Z,13.36
2023-08-06T15:47:41.459Z,13.38
2023-08-06T15:49:43.311Z,13.31
2023-08-06T15:51:45.184Z,13.31
2023-08-06T15:53:46.872Z,13.23
2023-08-06T15:55:48.594Z,13.23
2023-08-06T15:57:50.328Z,13.30
2023-08-06T15:59:51.890Z,13.31
2023-08-06T16:01:54.610Z,13.21
2023-08-06T16:03:56.242Z,13.13
2023-08-06T16:05:57.887Z,13.09
2023-08-06T16:08:00.102Z,13.03
2023-08-06T16:10:02.298Z,13.08
2023-08-06T16:12:04.830Z,13.07
2023-08-06T16:14:06.774Z,13.13
2023-08-06T16:16:08.350Z,13.06
2023-08-06T16:18:10.024Z,13.11
2023-08-06T16:20:13.049Z,13.08
2023-08-06T16:22:14.626Z,13.11
2023-08-06T16:24:16.212Z,13.10
2023-08-06T16:26:18.097Z,13.15
2023-08-06T16:28:19.991Z,13.20
2023-08-06T16:30:21.542Z,13.25
2023-08-06T16:32:23.242Z,13.19
2023-08-06T16:34:25.013Z,13.25
2023-08-06T16:36:26.764Z,13.27
2023-08-06T16:38:28.511Z,13.39
2023-08-06T16:40:30.176Z,13.43
2023-08-06T16:42:31.853Z,13.12
2023-08-06T16:44:33.470Z,13.05
2023-08-06T16:46:35.381Z,12.99
2023-08-06T16:48:37.249Z,12.89
2023-08-06T16:50:39.016Z,13.01
2023-08-06T16:52:40.713Z,12.99
2023-08-06T16:54:42.265Z,12.88
2023-08-06T16:56:43.844Z,12.92
2023-08-06T16:58:45.336Z,12.93
2023-08-06T17:00:47.994Z,12.83
2023-08-06T17:02:51.884Z,12.90
2023-08-06T17:04:54.384Z,12.95
2023-08-06T17:06:57.493Z,12.96
2023-08-06T17:08:59.578Z,12.90
2023-08-06T17:11:03.378Z,13.01
2023-08-06T17:13:14.346Z,13.02
2023-08-06T17:15:22.882Z,13.06
2023-08-06T17:17:24.456Z,13.08
2023-08-06T17:19:25.989Z,13.11
2023-08-06T17:21:27.808Z,13.04
2023-08-06T17:23:29.448Z,12.90
2023-08-06T17:25:32.121Z,12.96
2023-08-06T17:27:34.564Z,12.97
2023-08-06T17:29:37.078Z,12.84
2023-08-06T17:31:38.713Z,12.71
2023-08-06T17:33:40.512Z,12.75
2023-08-06T17:35:43.815Z,12.82
2023-08-06T17:37:45.422Z,12.87
2023-08-06T17:39:46.988Z,12.86
2023-08-06T17:41:48.878Z,12.90
2023-08-06T17:43:50.462Z,12.87
2023-08-06T17:45:52.017Z,12.84
2023-08-06T17:47:53.671Z,12.83
2023-08-06T17:49:55.196Z,12.87
2023-08-06T17:51:56.721Z,12.89
2023-08-06T17:53:58.497Z,12.83
2023-08-06T17:56:01.868Z,12.87
2023-08-06T17:58:03.784Z,12.81
2023-08-06T18:00:06.889Z,12.84
2023-08-06T18:02:14.768Z,12.85
2023-08-06T18:04:16.370Z,12.86
2023-08-06T18:06:17.930Z,12.76
2023-08-06T18:08:19.505Z,12.68
2023-08-06T18:10:21.352Z,12.73
2023-08-06T18:12:22.947Z,12.76
2023-08-06T18:14:24.589Z,12.77
2023-08-06T18:16:26.169Z,12.69
2023-08-06T18:18:27.732Z,12.74
2023-08-06T18:20:30.942Z,12.65
2023-08-06T18:22:32.520Z,12.68
2023-08-06T18:24:34.649Z,12.61
2023-08-06T18:26:36.281Z,12.65
2023-08-06T18:28:37.843Z,12.54
2023-08-06T18:30:41.220Z,12.61
2023-08-06T18:32:43.007Z,12.53
2023-08-06T18:34:44.634Z,12.50
2023-08-06T18:36:46.672Z,12.48
2023-08-06T18:38:51.294Z,12.44
2023-08-06T18:40:59.948Z,12.36
2023-08-06T18:43:01.697Z,12.35
2023-08-06T18:45:03.405Z,12.39
2023-08-06T18:47:05.768Z,12.41
2023-08-06T18:49:07.387Z,12.44
2023-08-06T18:51:09.156Z,12.51
2023-08-06T18:53:10.968Z,12.50
2023-08-06T18:55:12.580Z,12.51
2023-08-06T18:57:14.182Z,12.52
2023-08-06T18:59:21.269Z,12.45
2023-08-06T19:01:23.211Z,12.44
2023-08-06T19:03:25.601Z,12.41
2023-08-06T19:05:27.689Z,12.47
2023-08-06T19:07:29.527Z,12.50
2023-08-06T19:09:31.217Z,12.47
2023-08-06T19:11:32.872Z,12.48
2023-08-06T19:13:34.820Z,12.53
2023-08-06T19:15:36.908Z,12.45
2023-08-06T19:17:38.514Z,12.46
2023-08-06T19:19:44.490Z,12.44
2023-08-06T19:21:49.877Z,12.44
2023-08-06T19:23:51.662Z,12.47
2023-08-06T19:25:53.369Z,12.50
2023-08-06T19:27:54.958Z,12.48
2023-08-06T19:29:56.624Z,12.45
2023-08-06T19:32:05.722Z,12.46
2023-08-06T19:34:08.140Z,12.55
2023-08-06T19:36:09.736Z,12.57
2023-08-06T19:38:11.832Z,12.59
2023-08-06T19:40:14.954Z,12.59
2023-08-06T19:42:16.579Z,12.55
2023-08-06T19:44:18.161Z,12.34
2023-08-06T19:46:19.772Z,12.47
2023-08-06T19:48:21.681Z,12.42
2023-08-06T19:50:23.849Z,12.42
2023-08-06T19:52:25.415Z,12.50
2023-08-06T19:54:27.199Z,12.54
2023-08-06T19:56:29.952Z,12.53
2023-08-06T19:58:33.754Z,12.44
2023-08-06T20:00:35.569Z,12.48
2023-08-06T20:02:37.340Z,12.46
2023-08-06T20:04:38.954Z,12.42
2023-08-06T20:06:42.502Z,12.43
2023-08-06T20:08:44.043Z,12.38
2023-08-06T20:10:50.109Z,12.40
2023-08-06T20:12:52.100Z,12.20
2023-08-06T20:14:54.066Z,12.30
2023-08-06T20:16:55.593Z,12.27
2023-08-06T20:18:57.185Z,12.30
2023-08-06T20:25:49.774Z,12.25
2023-08-06T20:27:51.424Z,12.24
2023-08-06T20:29:52.999Z,12.17
2023-08-06T20:31:55.667Z,12.15
2023-08-06T20:33:57.732Z,12.20
2023-08-06T20:35:59.339Z,12.10
2023-08-06T20:38:00.944Z,12.13
2023-08-06T20:40:03.964Z,12.15
2023-08-06T20:42:05.873Z,12.21
2023-08-06T20:44:07.450Z,12.29
2023-08-06T20:46:09.140Z,12.28
2023-08-06T20:48:11.233Z,12.16
2023-08-06T20:50:12.842Z,12.12
2023-08-06T20:52:14.470Z,12.15
2023-08-06T20:54:16.190Z,12.19
2023-08-06T20:56:19.168Z,12.26
2023-08-06T20:58:20.766Z,12.13
2023-08-06T21:00:22.798Z,12.21
2023-08-06T21:02:26.169Z,12.23
2023-08-06T21:04:27.747Z,12.16
2023-08-06T21:06:29.317Z,12.15
2023-08-06T21:08:32.059Z,12.09
2023-08-06T21:10:34.916Z,12.15
2023-08-06T21:12:36.418Z,12.20
2023-08-06T21:14:38.015Z,12.15
2023-08-06T21:16:41.661Z,12.18
2023-08-06T21:18:44.041Z,12.20
2023-08-06T21:20:45.596Z,12.19
2023-08-06T21:22:47.112Z,12.17
2023-08-06T21:24:50.700Z,12.19
2023-08-06T21:26:52.491Z,12.19
2023-08-06T21:28:54.027Z,12.14
2023-08-06T21:31:06.959Z,12.15
2023-08-06T21:33:08.538Z,12.08
2023-08-06T21:35:11.751Z,12.07
2023-08-06T21:37:13.497Z,12.02
2023-08-06T21:39:15.032Z,11.98
2023-08-06T21:41:17.477Z,11.98
2023-08-06T21:43:18.970Z,11.99
2023-08-06T21:45:20.507Z,12.03
2023-08-06T21:47:22.101Z,12.02
2023-08-06T21:49:24.969Z,12.06
2023-08-06T21:51:27.955Z,12.07
2023-08-06T21:53:30.837Z,11.95
2023-08-06T21:55:35.537Z,12.04
2023-08-06T21:57:37.058Z,12.00
2023-08-06T21:59:38.597Z,11.96
2023-08-06T22:01:40.251Z,11.97
2023-08-06T22:03:44.192Z,11.94
2023-08-06T22:05:45.892Z,11.88
2023-08-06T22:07:47.432Z,11.86
2023-08-06T22:09:48.961Z,11.89
2023-08-06T22:11:50.947Z,11.95
2023-08-06T22:13:52.873Z,12.00
2023-08-06T22:15:54.616Z,12.00
2023-08-06T22:17:56.241Z,11.96
2023-08-06T22:19:58.951Z,11.92
2023-08-06T22:22:00.503Z,11.91
2023-08-06T22:24:02.568Z,11.98
2023-08-06T22:26:04.116Z,11.95
2023-08-06T22:28:06.040Z,11.96
2023-08-06T22:30:08.201Z,11.93
2023-08-06T22:32:09.847Z,12.00
2023-08-06T22:34:11.550Z,12.00
2023-08-06T22:36:13.129Z,11.93
2023-08-06T22:38:14.845Z,11.98
2023-08-06T22:40:18.102Z,12.05
2023-08-06T22:42:19.653Z,11.98
2023-08-06T22:44:21.656Z,11.94
2023-08-06T22:46:23.349Z,12.00
2023-08-06T22:48:24.919Z,11.93
2023-08-06T22:50:26.511Z,11.96
2023-08-06T22:52:28.076Z,11.98
2023-08-06T22:54:29.613Z,12.04
2023-08-06T22:56:31.402Z,12.03
2023-08-06T22:58:33.091Z,11.99
2023-08-06T23:00:34.686Z,11.94
2023-08-06T23:02:38.428Z,11.91
2023-08-06T23:04:40.167Z,11.90
2023-08-06T23:06:41.773Z,11.85
2023-08-06T23:08:43.472Z,11.82
2023-08-06T23:10:45.177Z,11.89
2023-08-06T23:12:46.685Z,11.92
2023-08-06T23:14:48.919Z,11.88
2023-08-06T23:16:51.103Z,11.83
2023-08-06T23:18:53.439Z,11.88
2023-08-06T23:20:54.956Z,11.84
2023-08-06T23:22:56.884Z,11.81
2023-08-06T23:24:58.416Z,11.84
2023-08-06T23:27:01.564Z,11.84
2023-08-06T23:29:03.178Z,11.84
2023-08-06T23:31:04.747Z,11.82
2023-08-06T23:33:06.397Z,11.87
2023-08-06T23:35:09.384Z,11.84
2023-08-06T23:37:11.120Z,11.83
2023-08-06T23:39:13.012Z,11.89
2023-08-06T23:41:15.095Z,11.76
2023-08-06T23:43:16.784Z,11.81
2023-08-06T23:45:18.322Z,11.76
2023-08-06T23:47:19.841Z,11.76
2023-08-06T23:49:21.840Z,11.73
2023-08-06T23:51:23.404Z,11.73
2023-08-06T23:53:25.252Z,11.78
2023-08-06T23:55:26.808Z,11.81
2023-08-06T23:57:28.528Z,11.81
2023-08-06T23:59:30.156Z,11.74
